createdAt,value
2016-07-10T00:00:25.419Z,91.22
2016-07-10T00:00:55.431Z,91.52
2016-07-10T00:01:25.456Z,91.52
2016-07-10T00:01:55.472Z,91.52
2016-07-10T00:02:25.479Z,91.52
2016-07-10T00:02:55.497Z,91.52
2016-07-10T00:03:24.901Z,91.61
2016-07-10T00:03:55.533Z,91.71
2016-07-10T00:04:25.545Z,91.8
2016-07-10T00:04:55.567Z,91.9
2016-07-10T00:05:25.582Z,91.99
2016-07-10T00:05:55.590Z,91.99
2016-07-10T00:06:25.606Z,92.29
2016-07-10T00:06:55.630Z,92.19
2016-07-10T00:07:25.635Z,91.8
2016-07-10T00:07:55.651Z,91.99
2016-07-10T00:08:25.665Z,91.71
2016-07-10T00:08:55.682Z,91.71
2016-07-10T00:09:25.701Z,91.9
2016-07-10T00:09:55.718Z,91.9
2016-07-10T00:10:25.728Z,91.71
2016-07-10T00:10:55.135Z,91.9
2016-07-10T00:11:25.762Z,91.9
2016-07-10T00:11:55.170Z,91.71
2016-07-10T00:12:25.789Z,91.71
2016-07-10T00:12:55.191Z,92.09
2016-07-10T00:13:25.214Z,91.8
2016-07-10T00:13:55.836Z,91.99
2016-07-10T00:14:25.851Z,91.9
2016-07-10T00:14:55.250Z,91.99
2016-07-10T00:15:25.886Z,91.9
2016-07-10T00:15:55.900Z,91.99
2016-07-10T00:16:25.918Z,91.8
2016-07-10T00:16:55.935Z,91.9
2016-07-10T00:17:25.944Z,91.9
2016-07-10T00:17:55.960Z,92.09
2016-07-10T00:18:25.981Z,91.99
2016-07-10T00:18:56.004Z,91.9
2016-07-10T00:19:26.015Z,91.99
2016-07-10T00:19:56.029Z,91.9
2016-07-10T00:20:26.039Z,92.09
2016-07-10T00:20:56.048Z,92.19
2016-07-10T00:21:26.068Z,92.09
2016-07-10T00:21:56.081Z,92.29
2016-07-10T00:22:25.483Z,92.29
2016-07-10T00:22:56.119Z,91.99
2016-07-10T00:23:25.517Z,91.8
2016-07-10T00:23:56.140Z,91.99
2016-07-10T00:24:26.158Z,91.99
2016-07-10T00:24:55.568Z,92.09
2016-07-10T00:25:26.189Z,91.99
2016-07-10T00:25:56.211Z,92.09
2016-07-10T00:26:26.223Z,92.09
2016-07-10T00:26:56.239Z,92.09
2016-07-10T00:27:26.263Z,91.8
2016-07-10T00:27:56.269Z,91.99
2016-07-10T00:28:26.284Z,91.8
2016-07-10T00:28:56.296Z,92.38
2016-07-10T00:29:26.318Z,92.29
2016-07-10T00:29:56.325Z,92.29
2016-07-10T00:30:26.346Z,92.29
2016-07-10T00:30:56.359Z,91.99
2016-07-10T00:31:26.378Z,92.29
2016-07-10T00:31:56.390Z,91.9
2016-07-10T00:32:26.409Z,92.47
2016-07-10T00:32:56.430Z,92.19
2016-07-10T00:33:25.829Z,92.29
2016-07-10T00:33:56.448Z,92.19
2016-07-10T00:34:26.469Z,92.09
2016-07-10T00:34:56.481Z,92.09
2016-07-10T00:35:25.889Z,91.99
2016-07-10T00:35:56.506Z,91.8
2016-07-10T00:36:26.525Z,92.09
2016-07-10T00:36:56.537Z,92.09
2016-07-10T00:37:25.939Z,92.29
2016-07-10T00:37:56.571Z,92.29
2016-07-10T00:38:25.976Z,92.29
2016-07-10T00:38:56.600Z,92.19
2016-07-10T00:39:26.645Z,92.76
2016-07-10T00:39:56.019Z,92.76
2016-07-10T00:40:26.654Z,92.96
2016-07-10T00:40:56.660Z,92.47
2016-07-10T00:41:26.680Z,92.96
2016-07-10T00:41:56.692Z,92.96
2016-07-10T00:42:26.719Z,92.76
2016-07-10T00:42:56.739Z,92.76
2016-07-10T00:43:26.740Z,92.86
2016-07-10T00:43:56.768Z,92.57
2016-07-10T00:44:26.769Z,92.76
2016-07-10T00:44:56.801Z,92.67
2016-07-10T00:45:26.799Z,92.76
2016-07-10T00:45:56.819Z,92.67
2016-07-10T00:46:26.828Z,92.47
2016-07-10T00:46:56.854Z,92.96
2016-07-10T00:47:26.859Z,92.47
2016-07-10T00:47:56.886Z,92.67
2016-07-10T00:48:26.894Z,92.47
2016-07-10T00:48:56.914Z,92.96
2016-07-10T00:49:26.924Z,92.57
2016-07-10T00:49:56.937Z,92.67
2016-07-10T00:50:26.951Z,92.76
2016-07-10T00:50:56.965Z,92.47
2016-07-10T00:51:26.379Z,92.96
2016-07-10T00:51:56.382Z,93.34
2016-07-10T00:52:27.014Z,92.96
2016-07-10T00:52:57.031Z,92.57
2016-07-10T00:53:27.065Z,93.05
2016-07-10T00:53:57.064Z,92.96
2016-07-10T00:54:27.074Z,93.15
2016-07-10T00:54:57.091Z,93.34
2016-07-10T00:55:26.487Z,93.15
2016-07-10T00:55:57.126Z,93.44
2016-07-10T00:56:27.142Z,92.96
2016-07-10T00:56:57.155Z,92.96
2016-07-10T00:57:27.173Z,92.96
2016-07-10T00:57:57.190Z,92.67
2016-07-10T00:58:27.202Z,93.05
2016-07-10T00:58:56.604Z,93.53
2016-07-10T00:59:27.233Z,93.53
2016-07-10T00:59:56.628Z,93.91
2016-07-10T01:00:27.264Z,93.53
2016-07-10T01:00:57.276Z,93.63
2016-07-10T01:01:27.290Z,93.63
2016-07-10T01:01:56.692Z,93.29
2016-07-10T01:02:27.326Z,93.44
2016-07-10T01:02:57.332Z,93.87
2016-07-10T01:03:26.750Z,93.87
2016-07-10T01:03:56.755Z,93.53
2016-07-10T01:04:27.380Z,93.77
2016-07-10T01:04:56.787Z,93.49
2016-07-10T01:05:27.416Z,94.06
2016-07-10T01:05:57.430Z,93.77
2016-07-10T01:06:27.451Z,93.87
2016-07-10T01:06:57.467Z,94.16
2016-07-10T01:07:27.473Z,94.06
2016-07-10T01:07:56.871Z,94.35
2016-07-10T01:08:27.507Z,94.06
2016-07-10T01:08:57.522Z,94.11
2016-07-10T01:09:27.534Z,93.77
2016-07-10T01:09:57.547Z,94.26
2016-07-10T01:10:27.575Z,94.16
2016-07-10T01:10:57.580Z,93.91
2016-07-10T01:11:26.981Z,93.68
2016-07-10T01:11:57.608Z,93.63
2016-07-10T01:12:27.624Z,93.58
2016-07-10T01:12:57.028Z,93.77
2016-07-10T01:13:27.662Z,93.58
2016-07-10T01:13:57.058Z,93.58
2016-07-10T01:14:27.080Z,93.87
2016-07-10T01:14:57.712Z,93.77
2016-07-10T01:15:27.110Z,93.77
2016-07-10T01:15:57.740Z,94.35
2016-07-10T01:16:27.749Z,94.26
2016-07-10T01:16:57.770Z,94.26
2016-07-10T01:17:26.557Z,94.16
2016-07-10T01:17:57.798Z,93.87
2016-07-10T01:18:27.196Z,93.87
2016-07-10T01:18:57.826Z,94.06
2016-07-10T01:19:27.853Z,94.06
2016-07-10T01:19:57.869Z,93.87
2016-07-10T01:20:27.872Z,94.06
2016-07-10T01:20:57.883Z,93.87
2016-07-10T01:21:26.674Z,93.87
2016-07-10T01:21:57.915Z,93.39
2016-07-10T01:22:27.937Z,93.87
2016-07-10T01:22:57.334Z,94.16
2016-07-10T01:23:27.965Z,94.3
2016-07-10T01:23:57.977Z,93.87
2016-07-10T01:24:27.997Z,93.39
2016-07-10T01:24:57.401Z,94.06
2016-07-10T01:25:28.028Z,93.39
2016-07-10T01:25:57.429Z,93.68
2016-07-10T01:26:28.061Z,94.16
2016-07-10T01:26:58.067Z,94.06
2016-07-10T01:27:27.470Z,94.26
2016-07-10T01:27:58.104Z,93.87
2016-07-10T01:28:28.117Z,94.16
2016-07-10T01:28:58.131Z,94.16
2016-07-10T01:29:27.535Z,94.16
2016-07-10T01:29:58.160Z,94.06
2016-07-10T01:30:28.189Z,95.03
2016-07-10T01:30:58.197Z,94.64
2016-07-10T01:31:28.208Z,94.26
2016-07-10T01:31:58.228Z,94.54
2016-07-10T01:32:28.237Z,94.73
2016-07-10T01:32:58.252Z,94.64
2016-07-10T01:33:28.268Z,95.03
2016-07-10T01:33:58.297Z,94.83
2016-07-10T01:34:28.308Z,94.93
2016-07-10T01:34:58.311Z,94.83
2016-07-10T01:35:28.326Z,94.54
2016-07-10T01:35:58.342Z,94.93
2016-07-10T01:36:28.360Z,94.73
2016-07-10T01:36:58.370Z,94.83
2016-07-10T01:37:27.773Z,94.93
2016-07-10T01:37:57.795Z,95.31
2016-07-10T01:38:28.426Z,95.31
2016-07-10T01:38:58.435Z,95.36
2016-07-10T01:39:27.832Z,95.21
2016-07-10T01:39:58.464Z,95.31
2016-07-10T01:40:28.481Z,95.36
2016-07-10T01:40:58.491Z,95.4
2016-07-10T01:41:28.512Z,95.55
2016-07-10T01:41:58.525Z,95.98
2016-07-10T01:42:28.548Z,95.79
2016-07-10T01:42:57.938Z,95.7
2016-07-10T01:43:28.577Z,95.55
2016-07-10T01:43:57.971Z,95.94
2016-07-10T01:44:27.990Z,96.17
2016-07-10T01:44:58.637Z,95.84
2016-07-10T01:45:28.634Z,95.5
2016-07-10T01:45:58.645Z,95.89
2016-07-10T01:46:28.046Z,95.55
2016-07-10T01:46:58.679Z,95.6
2016-07-10T01:47:28.697Z,95.89
2016-07-10T01:47:58.104Z,95.84
2016-07-10T01:48:28.728Z,95.84
2016-07-10T01:48:58.735Z,95.84
2016-07-10T01:49:28.134Z,95.84
2016-07-10T01:49:58.779Z,95.7
2016-07-10T01:50:28.786Z,95.79
2016-07-10T01:50:58.804Z,95.84
2016-07-10T01:51:28.821Z,95.45
2016-07-10T01:51:58.218Z,95.65
2016-07-10T01:52:28.845Z,95.45
2016-07-10T01:52:58.857Z,95.65
2016-07-10T01:53:28.883Z,96.22
2016-07-10T01:53:58.898Z,96.42
2016-07-10T01:54:28.909Z,96.32
2016-07-10T01:54:58.929Z,96.32
2016-07-10T01:55:28.935Z,95.89
2016-07-10T01:55:58.951Z,95.5
2016-07-10T01:56:28.971Z,95.65
2016-07-10T01:56:58.982Z,95.98
2016-07-10T01:57:29.008Z,96.03
2016-07-10T01:57:58.397Z,96.08
2016-07-10T01:58:29.025Z,95.79
2016-07-10T01:58:59.052Z,95.79
2016-07-10T01:59:29.064Z,95.98
2016-07-10T01:59:59.079Z,95.89
2016-07-10T02:00:29.083Z,95.75
2016-07-10T02:00:58.491Z,95.98
2016-07-10T02:01:29.126Z,95.94
2016-07-10T02:01:59.130Z,95.6
2016-07-10T02:02:29.154Z,95.75
2016-07-10T02:02:59.173Z,96.17
2016-07-10T02:03:28.564Z,96.42
2016-07-10T02:03:59.202Z,96.37
2016-07-10T02:04:29.216Z,96.42
2016-07-10T02:04:59.227Z,96.51
2016-07-10T02:05:29.243Z,96.32
2016-07-10T02:05:59.264Z,96.13
2016-07-10T02:06:29.272Z,96.7
2016-07-10T02:06:59.287Z,96.61
2016-07-10T02:07:29.303Z,96.8
2016-07-10T02:07:59.323Z,96.61
2016-07-10T02:08:29.335Z,96.7
2016-07-10T02:08:59.347Z,96.89
2016-07-10T02:09:29.364Z,96.8
2016-07-10T02:09:59.380Z,96.7
2016-07-10T02:10:29.390Z,96.51
2016-07-10T02:10:58.795Z,96.7
2016-07-10T02:11:28.186Z,96.7
2016-07-10T02:11:59.450Z,96.32
2016-07-10T02:12:29.453Z,96.8
2016-07-10T02:12:59.473Z,96.89
2016-07-10T02:13:29.479Z,97.19
2016-07-10T02:13:59.507Z,97.28
2016-07-10T02:14:29.524Z,97.09
2016-07-10T02:14:59.528Z,97.57
2016-07-10T02:15:29.549Z,97.09
2016-07-10T02:15:59.562Z,97.47
2016-07-10T02:16:29.573Z,97.96
2016-07-10T02:16:59.598Z,97.57
2016-07-10T02:17:29.606Z,97.57
2016-07-10T02:17:59.626Z,97.66
2016-07-10T02:18:29.649Z,98.14
2016-07-10T02:18:59.649Z,97.76
2016-07-10T02:19:29.661Z,97.38
2016-07-10T02:19:59.684Z,98.14
2016-07-10T02:20:29.086Z,97.81
2016-07-10T02:20:59.708Z,97.57
2016-07-10T02:21:29.721Z,98.1
2016-07-10T02:21:59.743Z,98
2016-07-10T02:22:29.771Z,98.1
2016-07-10T02:22:59.156Z,98.29
2016-07-10T02:23:29.788Z,98.19
2016-07-10T02:23:59.807Z,97.91
2016-07-10T02:24:29.821Z,97.71
2016-07-10T02:24:59.833Z,97.91
2016-07-10T02:25:29.848Z,98
2016-07-10T02:25:59.853Z,98.19
2016-07-10T02:26:29.889Z,98.19
2016-07-10T02:26:59.285Z,98.48
2016-07-10T02:27:29.297Z,98.67
2016-07-10T02:27:59.920Z,98.58
2016-07-10T02:28:29.934Z,98.48
2016-07-10T02:28:59.968Z,98.14
2016-07-10T02:29:29.975Z,98.29
2016-07-10T02:29:59.991Z,98.38
2016-07-10T02:30:29.996Z,98.58
2016-07-10T02:31:00.016Z,98.67
2016-07-10T02:31:30.029Z,98.34
2016-07-10T02:32:00.043Z,98.67
2016-07-10T02:32:30.055Z,98.58
2016-07-10T02:33:00.071Z,98.48
2016-07-10T02:33:30.086Z,98.38
2016-07-10T02:34:00.102Z,98.48
2016-07-10T02:34:30.113Z,98.58
2016-07-10T02:35:00.130Z,98.1
2016-07-10T02:35:30.143Z,98.96
2016-07-10T02:36:00.160Z,98.86
2016-07-10T02:36:30.178Z,98.77
2016-07-10T02:36:59.577Z,98.77
2016-07-10T02:37:30.201Z,98.48
2016-07-10T02:38:00.228Z,98.58
2016-07-10T02:38:30.236Z,98.58
2016-07-10T02:39:00.251Z,98.58
2016-07-10T02:39:30.264Z,98.96
2016-07-10T02:39:59.668Z,98.58
2016-07-10T02:40:30.294Z,98.67
2016-07-10T02:41:00.314Z,98.77
2016-07-10T02:41:30.331Z,98.58
2016-07-10T02:42:00.339Z,98.96
2016-07-10T02:42:29.744Z,99.44
2016-07-10T02:43:00.376Z,99.34
2016-07-10T02:43:30.401Z,99.34
2016-07-10T02:44:00.399Z,99.54
2016-07-10T02:44:30.418Z,99.05
2016-07-10T02:45:00.436Z,99.15
2016-07-10T02:45:29.830Z,99.25
2016-07-10T02:45:59.850Z,99.15
2016-07-10T02:46:30.483Z,99.44
2016-07-10T02:47:00.491Z,99.15
2016-07-10T02:47:30.508Z,99.15
2016-07-10T02:48:00.525Z,99.44
2016-07-10T02:48:30.539Z,98.86
2016-07-10T02:49:00.555Z,98.96
2016-07-10T02:49:30.570Z,99.73
2016-07-10T02:50:00.581Z,99.63
2016-07-10T02:50:29.984Z,99.99
2016-07-10T02:51:00.611Z,99.99
2016-07-10T02:51:30.625Z,99.73
2016-07-10T02:52:00.646Z,99.99
2016-07-10T02:52:30.660Z,99.99
2016-07-10T02:53:00.680Z,99.99
2016-07-10T02:53:30.697Z,99.63
2016-07-10T02:54:00.089Z,99.82
2016-07-10T02:54:30.724Z,99.63
2016-07-10T02:55:00.736Z,99.82
2016-07-10T02:55:30.758Z,99.99
2016-07-10T02:56:00.772Z,99.92
2016-07-10T02:56:30.777Z,99.54
2016-07-10T02:57:00.800Z,99.92
2016-07-10T02:57:30.823Z,99.82
2016-07-10T02:58:00.820Z,99.82
2016-07-10T02:58:30.834Z,99.82
2016-07-10T02:59:00.853Z,99.63
2016-07-10T02:59:30.869Z,99.54
2016-07-10T03:00:00.890Z,99.54
2016-07-10T03:00:30.901Z,99.63
2016-07-10T03:01:00.926Z,99.54
2016-07-10T03:01:30.931Z,99.44
2016-07-10T03:02:00.950Z,99.54
2016-07-10T03:02:30.957Z,99.54
2016-07-10T03:03:00.968Z,99.92
2016-07-10T03:03:30.991Z,99.54
2016-07-10T03:04:01.009Z,99.54
2016-07-10T03:04:30.407Z,99.54
2016-07-10T03:05:01.033Z,99.54
2016-07-10T03:05:31.048Z,99.63
2016-07-10T03:06:00.449Z,99.99
2016-07-10T03:06:31.081Z,99.99
2016-07-10T03:07:01.093Z,99.99
2016-07-10T03:07:30.493Z,99.54
2016-07-10T03:08:01.138Z,99.63
2016-07-10T03:08:31.141Z,99.54
2016-07-10T03:09:01.153Z,99.63
2016-07-10T03:09:30.562Z,99.73
2016-07-10T03:10:01.194Z,99.58
2016-07-10T03:10:29.967Z,99.54
2016-07-10T03:11:01.216Z,99.99
2016-07-10T03:11:31.232Z,99.96
2016-07-10T03:12:00.625Z,99.99
2016-07-10T03:12:30.654Z,99.99
2016-07-10T03:13:00.662Z,99.92
2016-07-10T03:13:31.288Z,99.87
2016-07-10T03:14:01.314Z,99.99
2016-07-10T03:14:30.709Z,99.96
2016-07-10T03:15:00.718Z,99.99
2016-07-10T03:15:31.344Z,99.99
2016-07-10T03:16:01.367Z,99.99
2016-07-10T03:16:31.382Z,99.99
2016-07-10T03:17:01.393Z,99.99
2016-07-10T03:17:31.407Z,99.99
2016-07-10T03:18:01.426Z,99.99
2016-07-10T03:18:31.438Z,99.99
2016-07-10T03:19:01.453Z,99.99
2016-07-10T03:19:31.473Z,99.99
2016-07-10T03:20:01.483Z,99.99
2016-07-10T03:20:31.493Z,99.99
2016-07-10T03:21:01.522Z,99.99
2016-07-10T03:21:31.529Z,99.99
2016-07-10T03:22:01.541Z,99.99
2016-07-10T03:22:31.562Z,99.99
2016-07-10T03:23:01.580Z,99.99
2016-07-10T03:23:30.972Z,99.99
2016-07-10T03:24:01.606Z,99.99
2016-07-10T03:24:31.624Z,99.99
2016-07-10T03:25:01.643Z,99.99
2016-07-10T03:25:31.650Z,99.99
2016-07-10T03:26:01.666Z,99.99
2016-07-10T03:26:31.683Z,99.99
2016-07-10T03:27:01.696Z,99.99
2016-07-10T03:27:31.707Z,99.99
2016-07-10T03:28:01.729Z,99.99
2016-07-10T03:28:31.752Z,99.99
2016-07-10T03:29:01.761Z,99.99
2016-07-10T03:29:31.772Z,99.99
2016-07-10T03:30:01.783Z,99.96
2016-07-10T03:30:31.802Z,99.87
2016-07-10T03:31:01.824Z,99.99
2016-07-10T03:31:31.832Z,99.99
2016-07-10T03:32:01.844Z,99.99
2016-07-10T03:32:31.861Z,99.99
2016-07-10T03:33:01.873Z,99.99
2016-07-10T03:33:31.888Z,99.99
2016-07-10T03:34:01.903Z,99.99
2016-07-10T03:34:31.311Z,99.99
2016-07-10T03:35:01.933Z,99.99
2016-07-10T03:35:31.950Z,99.99
2016-07-10T03:36:01.352Z,99.99
2016-07-10T03:36:31.985Z,99.99
2016-07-10T03:37:02.001Z,99.99
2016-07-10T03:37:32.011Z,99.99
2016-07-10T03:38:02.034Z,99.99
2016-07-10T03:38:32.039Z,99.99
2016-07-10T03:39:02.057Z,99.99
2016-07-10T03:39:32.072Z,99.99
2016-07-10T03:40:01.469Z,99.99
2016-07-10T03:40:32.099Z,99.99
2016-07-10T03:41:02.118Z,99.99
2016-07-10T03:41:32.127Z,99.99
2016-07-10T03:42:02.153Z,99.99
2016-07-10T03:42:32.163Z,99.99
2016-07-10T03:43:01.568Z,99.99
2016-07-10T03:43:32.187Z,99.99
2016-07-10T03:44:02.216Z,99.99
2016-07-10T03:44:32.222Z,99.99
2016-07-10T03:45:02.235Z,99.63
2016-07-10T03:45:31.633Z,99.99
2016-07-10T03:46:02.267Z,99.63
2016-07-10T03:46:32.288Z,99.63
2016-07-10T03:47:02.303Z,99.73
2016-07-10T03:47:32.309Z,99.82
2016-07-10T03:48:02.321Z,99.82
2016-07-10T03:48:32.336Z,99.63
2016-07-10T03:49:02.371Z,99.82
2016-07-10T03:49:31.758Z,99.73
2016-07-10T03:50:02.383Z,99.82
2016-07-10T03:50:31.782Z,99.54
2016-07-10T03:51:02.421Z,99.44
2016-07-10T03:51:32.430Z,99.73
2016-07-10T03:52:01.227Z,99.63
2016-07-10T03:52:32.457Z,99.82
2016-07-10T03:53:02.478Z,99.63
2016-07-10T03:53:32.492Z,99.92
2016-07-10T03:54:02.504Z,99.99
2016-07-10T03:54:32.520Z,99.99
2016-07-10T03:55:01.920Z,99.54
2016-07-10T03:55:32.553Z,99.63
2016-07-10T03:56:02.567Z,98.96
2016-07-10T03:56:32.579Z,99.73
2016-07-10T03:57:01.973Z,99.54
2016-07-10T03:57:32.608Z,99.34
2016-07-10T03:58:02.629Z,99.63
2016-07-10T03:58:32.637Z,99.63
2016-07-10T03:59:02.657Z,99.73
2016-07-10T03:59:32.668Z,99.82
2016-07-10T04:00:02.693Z,99.44
2016-07-10T04:00:32.700Z,98.86
2016-07-10T04:01:02.713Z,99.34
2016-07-10T04:01:32.730Z,99.34
2016-07-10T04:02:02.744Z,98.86
2016-07-10T04:02:32.153Z,99.25
2016-07-10T04:03:02.769Z,99.25
2016-07-10T04:03:32.794Z,99.05
2016-07-10T04:04:02.804Z,99.34
2016-07-10T04:04:32.820Z,99.34
2016-07-10T04:05:02.840Z,99.44
2016-07-10T04:05:32.853Z,99.15
2016-07-10T04:06:02.876Z,98.77
2016-07-10T04:06:32.877Z,98.58
2016-07-10T04:07:02.898Z,98.86
2016-07-10T04:07:32.917Z,98.58
2016-07-10T04:08:02.924Z,98.86
2016-07-10T04:08:32.323Z,98.77
2016-07-10T04:09:02.957Z,98.86
2016-07-10T04:09:32.970Z,98.67
2016-07-10T04:10:02.999Z,98.1
2016-07-10T04:10:32.388Z,98.48
2016-07-10T04:11:03.011Z,98.77
2016-07-10T04:11:31.800Z,98.58
2016-07-10T04:12:01.826Z,98.58
2016-07-10T04:12:33.054Z,98.48
2016-07-10T04:13:03.078Z,98.58
2016-07-10T04:13:33.092Z,98.58
2016-07-10T04:14:03.101Z,98.48
2016-07-10T04:14:33.131Z,98.77
2016-07-10T04:15:03.137Z,98.67
2016-07-10T04:15:33.151Z,98.48
2016-07-10T04:16:03.160Z,98.67
2016-07-10T04:16:32.564Z,98.63
2016-07-10T04:17:03.204Z,98.48
2016-07-10T04:17:33.212Z,98.58
2016-07-10T04:18:03.226Z,98.43
2016-07-10T04:18:33.238Z,98.58
2016-07-10T04:19:03.259Z,98.53
2016-07-10T04:19:32.660Z,98.67
2016-07-10T04:20:03.296Z,98.63
2016-07-10T04:20:33.298Z,98.1
2016-07-10T04:21:03.319Z,98.58
2016-07-10T04:21:33.341Z,98.67
2016-07-10T04:22:03.344Z,98.67
2016-07-10T04:22:33.360Z,98.38
2016-07-10T04:23:03.391Z,98.48
2016-07-10T04:23:33.393Z,97.91
2016-07-10T04:24:03.407Z,98.86
2016-07-10T04:24:33.420Z,98.58
2016-07-10T04:25:03.436Z,98.58
2016-07-10T04:25:33.444Z,98.58
2016-07-10T04:26:03.473Z,98.67
2016-07-10T04:26:32.882Z,98.58
2016-07-10T04:27:03.495Z,98.96
2016-07-10T04:27:33.513Z,98.96
2016-07-10T04:28:03.528Z,98.96
2016-07-10T04:28:33.545Z,99.63
2016-07-10T04:29:03.558Z,98.77
2016-07-10T04:29:33.567Z,98.91
2016-07-10T04:30:03.596Z,98.86
2016-07-10T04:30:32.987Z,98.86
2016-07-10T04:31:03.616Z,98.86
2016-07-10T04:31:33.636Z,98.67
2016-07-10T04:32:03.656Z,99.25
2016-07-10T04:32:33.660Z,98.1
2016-07-10T04:33:03.680Z,98.53
2016-07-10T04:33:33.695Z,98.91
2016-07-10T04:34:03.705Z,98.38
2016-07-10T04:34:33.724Z,98.53
2016-07-10T04:35:03.743Z,98.53
2016-07-10T04:35:33.750Z,98.72
2016-07-10T04:36:03.775Z,98.34
2016-07-10T04:36:33.783Z,98.24
2016-07-10T04:37:03.799Z,98.24
2016-07-10T04:37:33.814Z,98.14
2016-07-10T04:38:03.839Z,97.66
2016-07-10T04:38:33.836Z,97.38
2016-07-10T04:39:03.855Z,97.86
2016-07-10T04:39:33.265Z,97.76
2016-07-10T04:40:03.888Z,97.96
2016-07-10T04:40:33.907Z,97.96
2016-07-10T04:41:03.916Z,97.96
2016-07-10T04:41:33.929Z,97.57
2016-07-10T04:42:04.086Z,97.28
2016-07-10T04:42:33.348Z,97.04
2016-07-10T04:43:03.986Z,96.47
2016-07-10T04:43:34.000Z,96.66
2016-07-10T04:44:04.009Z,96.66
2016-07-10T04:44:34.027Z,96.75
2016-07-10T04:45:04.044Z,96.75
2016-07-10T04:45:33.447Z,96.17
2016-07-10T04:46:03.457Z,96.37
2016-07-10T04:46:34.098Z,95.7
2016-07-10T04:47:04.104Z,95.89
2016-07-10T04:47:34.123Z,95.89
2016-07-10T04:48:04.139Z,95.7
2016-07-10T04:48:34.157Z,95.98
2016-07-10T04:49:04.165Z,95.7
2016-07-10T04:49:34.177Z,95.5
2016-07-10T04:50:03.583Z,95.12
2016-07-10T04:50:34.209Z,95.36
2016-07-10T04:51:04.229Z,94.98
2016-07-10T04:51:34.231Z,95.45
2016-07-10T04:52:04.254Z,95.26
2016-07-10T04:52:34.266Z,95.65
2016-07-10T04:53:03.672Z,94.59
2016-07-10T04:53:34.295Z,94.88
2016-07-10T04:54:04.313Z,94.88
2016-07-10T04:54:34.324Z,94.68
2016-07-10T04:55:03.733Z,94.78
2016-07-10T04:55:34.369Z,94.21
2016-07-10T04:56:04.373Z,94.54
2016-07-10T04:56:33.781Z,94.21
2016-07-10T04:57:03.798Z,93.73
2016-07-10T04:57:34.418Z,93.87
2016-07-10T04:58:04.439Z,94.73
2016-07-10T04:58:33.837Z,93.96
2016-07-10T04:59:04.465Z,93.77
2016-07-10T04:59:34.483Z,94.06
2016-07-10T05:00:04.504Z,94.25
2016-07-10T05:00:34.519Z,94.06
2016-07-10T05:01:03.908Z,94.15
2016-07-10T05:01:34.558Z,94.06
2016-07-10T05:02:04.563Z,94.35
2016-07-10T05:02:34.584Z,93.77
2016-07-10T05:03:03.979Z,93.77
2016-07-10T05:03:34.620Z,94.01
2016-07-10T05:04:04.619Z,93.82
2016-07-10T05:04:34.042Z,93.91
2016-07-10T05:05:04.654Z,93.91
2016-07-10T05:05:34.668Z,93.44
2016-07-10T05:06:04.070Z,93.58
2016-07-10T05:06:34.710Z,93.48
2016-07-10T05:07:04.711Z,93.53
2016-07-10T05:07:34.733Z,93.58
2016-07-10T05:08:04.747Z,94.25
2016-07-10T05:08:34.760Z,93.77
2016-07-10T05:09:04.774Z,93.63
2016-07-10T05:09:34.794Z,94.3
2016-07-10T05:10:04.802Z,94.3
2016-07-10T05:10:34.829Z,94.49
2016-07-10T05:11:04.838Z,93.77
2016-07-10T05:11:34.868Z,94.01
2016-07-10T05:12:04.259Z,93.73
2016-07-10T05:12:33.659Z,93.58
2016-07-10T05:13:04.282Z,93.48
2016-07-10T05:13:34.918Z,92.71
2016-07-10T05:14:04.930Z,93.1
2016-07-10T05:14:34.330Z,92.52
2016-07-10T05:15:04.968Z,93
2016-07-10T05:15:34.972Z,92.91
2016-07-10T05:16:04.999Z,93.19
2016-07-10T05:16:35.007Z,93.19
2016-07-10T05:17:05.024Z,93.87
2016-07-10T05:17:35.042Z,93.19
2016-07-10T05:18:05.052Z,93
2016-07-10T05:18:35.064Z,92.85
2016-07-10T05:19:05.089Z,92.08
2016-07-10T05:19:35.109Z,91.8
2016-07-10T05:20:05.114Z,91.6
2016-07-10T05:20:35.130Z,91.22
2016-07-10T05:21:05.147Z,91.31
2016-07-10T05:21:35.155Z,91.22
2016-07-10T05:22:05.184Z,91.51
2016-07-10T05:22:35.191Z,91.31
2016-07-10T05:23:05.210Z,91.22
2016-07-10T05:23:34.613Z,91.7
2016-07-10T05:24:05.253Z,91.6
2016-07-10T05:24:35.261Z,91.89
2016-07-10T05:25:05.275Z,91.7
2016-07-10T05:25:34.674Z,91.89
2016-07-10T05:26:05.298Z,91.99
2016-07-10T05:26:35.315Z,91.89
2016-07-10T05:27:05.330Z,91.89
2016-07-10T05:27:35.345Z,91.7
2016-07-10T05:28:05.360Z,91.89
2016-07-10T05:28:35.378Z,91.8
2016-07-10T05:29:05.403Z,91.8
2016-07-10T05:29:35.405Z,91.89
2016-07-10T05:30:05.429Z,91.13
2016-07-10T05:30:35.447Z,91.51
2016-07-10T05:31:05.449Z,91.51
2016-07-10T05:31:35.485Z,90.64
2016-07-10T05:32:05.484Z,91.22
2016-07-10T05:32:35.500Z,90.78
2016-07-10T05:33:05.519Z,90.78
2016-07-10T05:33:35.530Z,90.5
2016-07-10T05:34:05.551Z,90.01
2016-07-10T05:34:35.562Z,90.54
2016-07-10T05:35:05.591Z,90.06
2016-07-10T05:35:35.596Z,89.96
2016-07-10T05:36:05.614Z,89.67
2016-07-10T05:36:35.650Z,89.86
2016-07-10T05:37:05.638Z,89.58
2016-07-10T05:37:35.656Z,88.75
2016-07-10T05:38:05.061Z,88.56
2016-07-10T05:38:35.091Z,88.65
2016-07-10T05:39:05.705Z,87.79
2016-07-10T05:39:35.104Z,87.83
2016-07-10T05:40:05.737Z,87.06
2016-07-10T05:40:35.751Z,86.58
2016-07-10T05:41:05.161Z,86.48
2016-07-10T05:41:35.782Z,86
2016-07-10T05:42:05.796Z,85.46
2016-07-10T05:42:35.821Z,85.37
2016-07-10T05:43:05.843Z,85.56
2016-07-10T05:43:35.851Z,85.37
2016-07-10T05:44:05.860Z,84.89
2016-07-10T05:44:35.874Z,84.5
2016-07-10T05:45:05.896Z,85.08
2016-07-10T05:45:35.903Z,84.89
2016-07-10T05:46:05.932Z,84.69
2016-07-10T05:46:35.331Z,84.89
2016-07-10T05:47:05.961Z,84.41
2016-07-10T05:47:35.972Z,84.98
2016-07-10T05:48:05.384Z,84.84
2016-07-10T05:48:36.009Z,85.42
2016-07-10T05:49:06.022Z,85.81
2016-07-10T05:49:36.041Z,86.1
2016-07-10T05:50:05.432Z,86.1
2016-07-10T05:50:36.078Z,86.48
2016-07-10T05:51:06.086Z,86.58
2016-07-10T05:51:35.482Z,86.48
2016-07-10T05:52:06.121Z,86.39
2016-07-10T05:52:36.129Z,86.48
2016-07-10T05:53:05.529Z,86.29
2016-07-10T05:53:36.162Z,86.19
2016-07-10T05:54:06.184Z,86.68
2016-07-10T05:54:36.192Z,86.39
2016-07-10T05:55:06.211Z,86.39
2016-07-10T05:55:35.613Z,86.48
2016-07-10T05:56:05.632Z,86.1
2016-07-10T05:56:36.268Z,85.56
2016-07-10T05:57:06.270Z,85.52
2016-07-10T05:57:36.297Z,85.61
2016-07-10T05:58:06.303Z,85.71
2016-07-10T05:58:36.328Z,85.52
2016-07-10T05:59:05.734Z,85.52
2016-07-10T05:59:36.363Z,86
2016-07-10T06:00:06.374Z,86
2016-07-10T06:00:36.390Z,86.15
2016-07-10T06:01:06.401Z,86.35
2016-07-10T06:01:35.803Z,86.68
2016-07-10T06:02:06.438Z,86.48
2016-07-10T06:02:36.457Z,86.39
2016-07-10T06:03:06.463Z,86.48
2016-07-10T06:03:36.482Z,86.58
2016-07-10T06:04:06.502Z,86.19
2016-07-10T06:04:35.897Z,86.1
2016-07-10T06:05:06.537Z,85.52
2016-07-10T06:05:35.937Z,85.85
2016-07-10T06:06:06.571Z,85.85
2016-07-10T06:06:36.579Z,85.75
2016-07-10T06:07:05.978Z,85.46
2016-07-10T06:07:36.618Z,85.46
2016-07-10T06:08:06.629Z,85.17
2016-07-10T06:08:36.654Z,85.08
2016-07-10T06:09:06.661Z,84.31
2016-07-10T06:09:36.668Z,84.89
2016-07-10T06:10:06.075Z,84.79
2016-07-10T06:10:36.709Z,84.69
2016-07-10T06:11:06.717Z,84.89
2016-07-10T06:11:36.748Z,84.79
2016-07-10T06:12:06.761Z,84.89
2016-07-10T06:12:36.772Z,84.5
2016-07-10T06:13:06.795Z,84.98
2016-07-10T06:13:36.195Z,85.17
2016-07-10T06:14:06.817Z,85.08
2016-07-10T06:14:36.832Z,85.75
2016-07-10T06:15:06.850Z,85.17
2016-07-10T06:15:36.873Z,85.41
2016-07-10T06:16:06.877Z,84.64
2016-07-10T06:16:36.898Z,84.83
2016-07-10T06:17:06.922Z,84.93
2016-07-10T06:17:36.932Z,84.35
2016-07-10T06:18:06.945Z,84.54
2016-07-10T06:18:36.962Z,85.12
2016-07-10T06:19:06.979Z,84.64
2016-07-10T06:19:36.994Z,83.72
2016-07-10T06:20:07.015Z,83.39
2016-07-10T06:20:37.031Z,83.39
2016-07-10T06:21:07.039Z,83.09
2016-07-10T06:21:37.086Z,82.84
2016-07-10T06:22:07.078Z,82.65
2016-07-10T06:22:37.091Z,82.56
2016-07-10T06:23:07.110Z,82.56
2016-07-10T06:23:36.506Z,82.65
2016-07-10T06:24:07.136Z,82.75
2016-07-10T06:24:36.544Z,82.46
2016-07-10T06:25:07.173Z,82.46
2016-07-10T06:25:36.577Z,82.46
2016-07-10T06:26:07.193Z,82.98
2016-07-10T06:26:37.207Z,81.63
2016-07-10T06:27:06.618Z,81.92
2016-07-10T06:27:37.255Z,81.92
2016-07-10T06:28:07.263Z,81.59